sensor_id;sensor_type;location;lat;lon;timestamp;temperature;humidity
16180;DHT22;8196;49.428;10.906;2023-04-25T00:00:17;8.10;99.90
16180;DHT22;8196;49.428;10.906;2023-04-25T00:02:44;8.10;99.90
16180;DHT22;8196;49.428;10.906;2023-04-25T00:05:11;8.10;99.90
16180;DHT22;8196;49.428;10.906;2023-04-25T00:07:38;8.10;99.90
16180;DHT22;8196;49.428;10.906;2023-04-25T00:10:05;8.10;99.90
16180;DHT22;8196;49.428;10.906;2023-04-25T00:12:32;8.10;99.90
16180;DHT22;8196;49.428;10.906;2023-04-25T00:14:59;8.10;99.90
16180;DHT22;8196;49.428;10.906;2023-04-25T00:17:26;8.00;99.90
16180;DHT22;8196;49.428;10.906;2023-04-25T00:19:55;8.40;99.90
16180;DHT22;8196;49.428;10.906;2023-04-25T00:22:22;8.10;99.90
16180;DHT22;8196;49.428;10.906;2023-04-25T00:24:49;7.50;99.90
16180;DHT22;8196;49.428;10.906;2023-04-25T00:27:16;8.10;99.90
16180;DHT22;8196;49.428;10.906;2023-04-25T00:29:43;8.10;99.90
16180;DHT22;8196;49.428;10.906;2023-04-25T00:32:10;7.40;99.90
16180;DHT22;8196;49.428;10.906;2023-04-25T00:34:36;8.00;99.90
16180;DHT22;8196;49.428;10.906;2023-04-25T00:37:03;7.90;99.90
16180;DHT22;8196;49.428;10.906;2023-04-25T00:39:30;7.90;99.90
16180;DHT22;8196;49.428;10.906;2023-04-25T00:41:57;7.90;99.90
16180;DHT22;8196;49.428;10.906;2023-04-25T00:44:24;7.80;99.90
16180;DHT22;8196;49.428;10.906;2023-04-25T00:46:54;9.30;99.90
16180;DHT22;8196;49.428;10.906;2023-04-25T00:49:21;8.00;99.90
16180;DHT22;8196;49.428;10.906;2023-04-25T00:51:48;8.10;99.90
16180;DHT22;8196;49.428;10.906;2023-04-25T00:54:15;8.20;99.90
16180;DHT22;8196;49.428;10.906;2023-04-25T00:56:42;8.30;99.90
16180;DHT22;8196;49.428;10.906;2023-04-25T00:59:09;8.90;99.90
16180;DHT22;8196;49.428;10.906;2023-04-25T01:01:36;8.30;99.90
16180;DHT22;8196;49.428;10.906;2023-04-25T01:04:04;8.30;99.90
16180;DHT22;8196;49.428;10.906;2023-04-25T01:06:31;8.20;99.90
16180;DHT22;8196;49.428;10.906;2023-04-25T01:08:59;8.10;99.90
16180;DHT22;8196;49.428;10.906;2023-04-25T01:11:26;8.00;99.90
16180;DHT22;8196;49.428;10.906;2023-04-25T01:13:52;7.90;99.90
16180;DHT22;8196;49.428;10.906;2023-04-25T01:16:19;7.80;99.90
16180;DHT22;8196;49.428;10.906;2023-04-25T01:18:47;7.80;99.90
16180;DHT22;8196;49.428;10.906;2023-04-25T01:21:14;7.70;99.90
16180;DHT22;8196;49.428;10.906;2023-04-25T01:23:42;7.60;99.90
16180;DHT22;8196;49.428;10.906;2023-04-25T01:26:10;7.60;99.90
16180;DHT22;8196;49.428;10.906;2023-04-25T01:28:37;7.50;99.90
16180;DHT22;8196;49.428;10.906;2023-04-25T01:31:04;6.70;99.90
16180;DHT22;8196;49.428;10.906;2023-04-25T01:33:32;7.30;99.90
16180;DHT22;8196;49.428;10.906;2023-04-25T01:35:59;7.40;99.90
16180;DHT22;8196;49.428;10.906;2023-04-25T01:38:26;7.30;99.90
16180;DHT22;8196;49.428;10.906;2023-04-25T01:40:53;7.30;99.90
16180;DHT22;8196;49.428;10.906;2023-04-25T01:43:20;7.40;99.90
16180;DHT22;8196;49.428;10.906;2023-04-25T01:45:48;7.40;99.90
16180;DHT22;8196;49.428;10.906;2023-04-25T01:48:15;7.40;99.90
16180;DHT22;8196;49.428;10.906;2023-04-25T01:50:43;7.30;99.90
16180;DHT22;8196;49.428;10.906;2023-04-25T01:53:12;7.30;99.90
16180;DHT22;8196;49.428;10.906;2023-04-25T01:55:39;7.20;99.90
16180;DHT22;8196;49.428;10.906;2023-04-25T01:58:06;7.20;99.90
16180;DHT22;8196;49.428;10.906;2023-04-25T02:00:36;7.10;99.90
16180;DHT22;8196;49.428;10.906;2023-04-25T02:03:05;7.10;99.90
16180;DHT22;8196;49.428;10.906;2023-04-25T02:05:36;7.00;99.90
16180;DHT22;8196;49.428;10.906;2023-04-25T02:08:05;6.90;99.90
16180;DHT22;8196;49.428;10.906;2023-04-25T02:10:35;6.90;99.90
16180;DHT22;8196;49.428;10.906;2023-04-25T02:13:02;6.80;99.90
16180;DHT22;8196;49.428;10.906;2023-04-25T02:15:30;6.90;99.90
16180;DHT22;8196;49.428;10.906;2023-04-25T02:17:57;6.90;99.90
16180;DHT22;8196;49.428;10.906;2023-04-25T02:20:24;6.90;99.90
16180;DHT22;8196;49.428;10.906;2023-04-25T02:22:51;6.80;99.90
16180;DHT22;8196;49.428;10.906;2023-04-25T02:25:19;6.80;99.90
16180;DHT22;8196;49.428;10.906;2023-04-25T02:27:47;6.80;99.90
16180;DHT22;8196;49.428;10.906;2023-04-25T02:30:14;6.80;99.90
16180;DHT22;8196;49.428;10.906;2023-04-25T02:35:23;6.80;99.90
16180;DHT22;8196;49.428;10.906;2023-04-25T02:37:50;6.90;99.90
16180;DHT22;8196;49.428;10.906;2023-04-25T02:40:17;6.90;99.90
16180;DHT22;8196;49.428;10.906;2023-04-25T02:42:43;6.80;99.90
16180;DHT22;8196;49.428;10.906;2023-04-25T02:45:12;6.80;99.90
16180;DHT22;8196;49.428;10.906;2023-04-25T02:47:39;6.90;99.90
16180;DHT22;8196;49.428;10.906;2023-04-25T02:50:06;6.80;99.90
16180;DHT22;8196;49.428;10.906;2023-04-25T02:52:33;7.00;99.90
16180;DHT22;8196;49.428;10.906;2023-04-25T02:54:59;6.90;99.90
16180;DHT22;8196;49.428;10.906;2023-04-25T02:57:26;6.80;99.90
16180;DHT22;8196;49.428;10.906;2023-04-25T02:59:53;6.80;99.90
16180;DHT22;8196;49.428;10.906;2023-04-25T03:02:19;6.80;99.90
16180;DHT22;8196;49.428;10.906;2023-04-25T03:04:47;6.80;99.90
16180;DHT22;8196;49.428;10.906;2023-04-25T03:07:14;6.70;99.90
16180;DHT22;8196;49.428;10.906;2023-04-25T03:09:41;6.40;99.90
16180;DHT22;8196;49.428;10.906;2023-04-25T03:12:08;6.60;99.90
16180;DHT22;8196;49.428;10.906;2023-04-25T03:14:34;6.60;99.90
16180;DHT22;8196;49.428;10.906;2023-04-25T03:17:01;6.50;99.90
16180;DHT22;8196;49.428;10.906;2023-04-25T03:19:28;6.50;99.90
16180;DHT22;8196;49.428;10.906;2023-04-25T03:21:55;6.50;99.90
16180;DHT22;8196;49.428;10.906;2023-04-25T03:24:21;6.40;99.90
16180;DHT22;8196;49.428;10.906;2023-04-25T03:26:48;6.50;99.90
16180;DHT22;8196;49.428;10.906;2023-04-25T03:29:15;6.40;99.90
16180;DHT22;8196;49.428;10.906;2023-04-25T03:31:42;6.40;99.90
16180;DHT22;8196;49.428;10.906;2023-04-25T03:34:08;6.40;99.90
16180;DHT22;8196;49.428;10.906;2023-04-25T03:36:35;6.40;99.90
16180;DHT22;8196;49.428;10.906;2023-04-25T03:39:02;6.40;99.90
16180;DHT22;8196;49.428;10.906;2023-04-25T03:41:29;6.40;99.90
16180;DHT22;8196;49.428;10.906;2023-04-25T03:43:56;6.30;99.90
16180;DHT22;8196;49.428;10.906;2023-04-25T03:46:22;6.30;99.90
16180;DHT22;8196;49.428;10.906;2023-04-25T03:48:49;6.20;99.90
16180;DHT22;8196;49.428;10.906;2023-04-25T03:51:16;6.20;99.90
16180;DHT22;8196;49.428;10.906;2023-04-25T03:53:43;6.20;99.90
16180;DHT22;8196;49.428;10.906;2023-04-25T03:56:09;6.10;99.90
16180;DHT22;8196;49.428;10.906;2023-04-25T03:58:36;6.20;99.90
16180;DHT22;8196;49.428;10.906;2023-04-25T04:01:03;6.20;99.90
16180;DHT22;8196;49.428;10.906;2023-04-25T04:03:35;6.30;99.90
16180;DHT22;8196;49.428;10.906;2023-04-25T04:06:04;6.40;99.90
16180;DHT22;8196;49.428;10.906;2023-04-25T04:08:32;6.50;99.90
16180;DHT22;8196;49.428;10.906;2023-04-25T04:10:59;6.50;99.90
16180;DHT22;8196;49.428;10.906;2023-04-25T04:13:27;6.60;99.90
16180;DHT22;8196;49.428;10.906;2023-04-25T04:15:54;6.70;99.90
16180;DHT22;8196;49.428;10.906;2023-04-25T04:18:22;6.80;99.90
16180;DHT22;8196;49.428;10.906;2023-04-25T04:20:48;6.80;99.90
16180;DHT22;8196;49.428;10.906;2023-04-25T04:23:16;6.90;99.90
16180;DHT22;8196;49.428;10.906;2023-04-25T04:25:43;7.00;99.90
16180;DHT22;8196;49.428;10.906;2023-04-25T04:28:10;7.10;99.90
16180;DHT22;8196;49.428;10.906;2023-04-25T04:30:37;7.10;99.90
16180;DHT22;8196;49.428;10.906;2023-04-25T04:33:05;10.40;99.90
16180;DHT22;8196;49.428;10.906;2023-04-25T04:35:34;7.30;99.90
16180;DHT22;8196;49.428;10.906;2023-04-25T04:38:00;7.30;99.90
16180;DHT22;8196;49.428;10.906;2023-04-25T04:40:27;7.40;99.90
16180;DHT22;8196;49.428;10.906;2023-04-25T04:42:54;7.40;99.90
16180;DHT22;8196;49.428;10.906;2023-04-25T04:45:23;7.50;99.90
16180;DHT22;8196;49.428;10.906;2023-04-25T04:47:50;7.50;99.90
16180;DHT22;8196;49.428;10.906;2023-04-25T04:50:16;7.50;99.90
16180;DHT22;8196;49.428;10.906;2023-04-25T04:52:44;7.50;99.90
16180;DHT22;8196;49.428;10.906;2023-04-25T04:55:11;7.40;99.90
16180;DHT22;8196;49.428;10.906;2023-04-25T04:57:38;7.60;99.90
16180;DHT22;8196;49.428;10.906;2023-04-25T05:00:05;11.20;99.90
16180;DHT22;8196;49.428;10.906;2023-04-25T05:02:38;7.60;99.90
16180;DHT22;8196;49.428;10.906;2023-04-25T05:05:05;8.70;99.90
16180;DHT22;8196;49.428;10.906;2023-04-25T05:07:32;7.70;99.90
16180;DHT22;8196;49.428;10.906;2023-04-25T05:09:59;7.70;99.90
16180;DHT22;8196;49.428;10.906;2023-04-25T05:12:25;7.80;99.90
16180;DHT22;8196;49.428;10.906;2023-04-25T05:14:52;7.80;99.90
16180;DHT22;8196;49.428;10.906;2023-04-25T05:17:19;7.80;99.90
16180;DHT22;8196;49.428;10.906;2023-04-25T05:19:46;7.90;99.90
16180;DHT22;8196;49.428;10.906;2023-04-25T05:22:12;7.90;99.90
16180;DHT22;8196;49.428;10.906;2023-04-25T05:24:39;7.90;99.90
16180;DHT22;8196;49.428;10.906;2023-04-25T05:27:06;8.00;99.90
16180;DHT22;8196;49.428;10.906;2023-04-25T05:29:32;8.00;99.90
16180;DHT22;8196;49.428;10.906;2023-04-25T05:31:59;8.00;99.90
16180;DHT22;8196;49.428;10.906;2023-04-25T05:34:26;8.10;99.90
16180;DHT22;8196;49.428;10.906;2023-04-25T05:36:53;8.10;99.90
16180;DHT22;8196;49.428;10.906;2023-04-25T05:39:19;8.20;99.90
16180;DHT22;8196;49.428;10.906;2023-04-25T05:41:46;10.40;99.90
16180;DHT22;8196;49.428;10.906;2023-04-25T05:44:13;9.40;99.90
16180;DHT22;8196;49.428;10.906;2023-04-25T05:46:39;8.30;99.90
16180;DHT22;8196;49.428;10.906;2023-04-25T05:49:06;8.40;99.90
16180;DHT22;8196;49.428;10.906;2023-04-25T05:51:33;8.50;99.90
16180;DHT22;8196;49.428;10.906;2023-04-25T05:54:00;8.50;99.90
16180;DHT22;8196;49.428;10.906;2023-04-25T05:56:26;8.50;99.90
16180;DHT22;8196;49.428;10.906;2023-04-25T05:58:53;8.50;99.90
16180;DHT22;8196;49.428;10.906;2023-04-25T06:01:20;8.60;99.90
16180;DHT22;8196;49.428;10.906;2023-04-25T06:03:47;8.50;99.90
16180;DHT22;8196;49.428;10.906;2023-04-25T06:06:14;8.50;99.90
16180;DHT22;8196;49.428;10.906;2023-04-25T06:08:41;8.60;99.90
16180;DHT22;8196;49.428;10.906;2023-04-25T06:11:07;8.20;99.90
16180;DHT22;8196;49.428;10.906;2023-04-25T06:13:34;8.50;99.90
16180;DHT22;8196;49.428;10.906;2023-04-25T06:16:01;8.50;99.90
16180;DHT22;8196;49.428;10.906;2023-04-25T06:18:28;8.50;99.90
16180;DHT22;8196;49.428;10.906;2023-04-25T06:20:54;8.50;99.90
16180;DHT22;8196;49.428;10.906;2023-04-25T06:23:21;8.40;99.90
16180;DHT22;8196;49.428;10.906;2023-04-25T06:25:48;8.20;99.90
16180;DHT22;8196;49.428;10.906;2023-04-25T06:28:15;8.10;99.90
16180;DHT22;8196;49.428;10.906;2023-04-25T06:30:41;8.00;99.90
16180;DHT22;8196;49.428;10.906;2023-04-25T06:33:08;7.90;99.90
16180;DHT22;8196;49.428;10.906;2023-04-25T06:35:35;7.90;99.90
16180;DHT22;8196;49.428;10.906;2023-04-25T06:38:02;7.80;99.90
16180;DHT22;8196;49.428;10.906;2023-04-25T06:40:28;7.80;99.90
16180;DHT22;8196;49.428;10.906;2023-04-25T06:42:55;7.80;99.90
16180;DHT22;8196;49.428;10.906;2023-04-25T06:45:22;7.70;99.90
16180;DHT22;8196;49.428;10.906;2023-04-25T06:47:48;7.80;99.90
16180;DHT22;8196;49.428;10.906;2023-04-25T06:50:15;7.90;99.90
16180;DHT22;8196;49.428;10.906;2023-04-25T06:52:42;7.90;99.90
16180;DHT22;8196;49.428;10.906;2023-04-25T06:55:09;7.90;99.90
16180;DHT22;8196;49.428;10.906;2023-04-25T06:57:36;7.90;99.90
16180;DHT22;8196;49.428;10.906;2023-04-25T07:00:03;7.80;99.90
16180;DHT22;8196;49.428;10.906;2023-04-25T07:02:32;7.90;99.90
16180;DHT22;8196;49.428;10.906;2023-04-25T07:04:59;7.90;99.90
16180;DHT22;8196;49.428;10.906;2023-04-25T07:07:26;7.90;99.90
16180;DHT22;8196;49.428;10.906;2023-04-25T07:09:53;7.90;99.90
16180;DHT22;8196;49.428;10.906;2023-04-25T07:12:21;7.80;99.90
16180;DHT22;8196;49.428;10.906;2023-04-25T07:14:47;7.80;99.90
16180;DHT22;8196;49.428;10.906;2023-04-25T07:17:14;7.80;99.90
16180;DHT22;8196;49.428;10.906;2023-04-25T07:19:41;7.40;99.90
16180;DHT22;8196;49.428;10.906;2023-04-25T07:22:08;7.80;99.90
16180;DHT22;8196;49.428;10.906;2023-04-25T07:24:35;7.80;99.90
16180;DHT22;8196;49.428;10.906;2023-04-25T07:27:02;7.90;99.90
16180;DHT22;8196;49.428;10.906;2023-04-25T07:29:29;7.90;99.90
16180;DHT22;8196;49.428;10.906;2023-04-25T07:31:56;7.90;99.90
16180;DHT22;8196;49.428;10.906;2023-04-25T07:34:23;7.90;99.90
16180;DHT22;8196;49.428;10.906;2023-04-25T07:36:50;7.90;99.90
16180;DHT22;8196;49.428;10.906;2023-04-25T07:39:16;7.80;99.90
16180;DHT22;8196;49.428;10.906;2023-04-25T07:41:43;7.80;99.90
16180;DHT22;8196;49.428;10.906;2023-04-25T07:44:10;7.80;99.90
16180;DHT22;8196;49.428;10.906;2023-04-25T07:46:37;7.80;99.90
16180;DHT22;8196;49.428;10.906;2023-04-25T07:49:03;7.80;99.90
16180;DHT22;8196;49.428;10.906;2023-04-25T07:51:30;7.90;99.90
16180;DHT22;8196;49.428;10.906;2023-04-25T07:53:57;8.00;99.90
16180;DHT22;8196;49.428;10.906;2023-04-25T07:56:26;8.00;99.90
16180;DHT22;8196;49.428;10.906;2023-04-25T07:58:52;8.00;99.90
16180;DHT22;8196;49.428;10.906;2023-04-25T08:01:19;8.00;99.90
16180;DHT22;8196;49.428;10.906;2023-04-25T08:03:48;8.00;99.90
16180;DHT22;8196;49.428;10.906;2023-04-25T08:06:15;8.00;99.90
16180;DHT22;8196;49.428;10.906;2023-04-25T08:08:42;8.00;99.90
16180;DHT22;8196;49.428;10.906;2023-04-25T08:11:09;8.00;99.90
16180;DHT22;8196;49.428;10.906;2023-04-25T08:13:35;8.10;99.90
16180;DHT22;8196;49.428;10.906;2023-04-25T08:16:02;8.20;99.90
16180;DHT22;8196;49.428;10.906;2023-04-25T08:18:29;8.50;99.90
16180;DHT22;8196;49.428;10.906;2023-04-25T08:20:56;8.70;99.90
16180;DHT22;8196;49.428;10.906;2023-04-25T08:23:22;9.10;99.90
16180;DHT22;8196;49.428;10.906;2023-04-25T08:25:49;9.40;99.90
16180;DHT22;8196;49.428;10.906;2023-04-25T08:28:16;9.60;99.90
16180;DHT22;8196;49.428;10.906;2023-04-25T08:30:42;9.70;99.90
16180;DHT22;8196;49.428;10.906;2023-04-25T08:33:09;10.20;99.90
16180;DHT22;8196;49.428;10.906;2023-04-25T08:35:37;10.60;99.90
16180;DHT22;8196;49.428;10.906;2023-04-25T08:38:04;10.80;99.90
16180;DHT22;8196;49.428;10.906;2023-04-25T08:40:36;10.70;99.90
16180;DHT22;8196;49.428;10.906;2023-04-25T08:43:06;10.70;99.90
16180;DHT22;8196;49.428;10.906;2023-04-25T08:45:39;10.80;99.90
16180;DHT22;8196;49.428;10.906;2023-04-25T08:48:10;11.10;99.90
16180;DHT22;8196;49.428;10.906;2023-04-25T08:50:54;11.10;99.90
16180;DHT22;8196;49.428;10.906;2023-04-25T08:53:26;11.10;99.90
16180;DHT22;8196;49.428;10.906;2023-04-25T08:55:56;11.10;99.90
16180;DHT22;8196;49.428;10.906;2023-04-25T08:58:23;11.10;99.90
16180;DHT22;8196;49.428;10.906;2023-04-25T09:00:51;11.10;99.90
16180;DHT22;8196;49.428;10.906;2023-04-25T09:03:18;11.00;99.90
16180;DHT22;8196;49.428;10.906;2023-04-25T09:05:45;11.00;99.90
16180;DHT22;8196;49.428;10.906;2023-04-25T09:08:12;11.30;99.90
16180;DHT22;8196;49.428;10.906;2023-04-25T09:10:40;11.40;99.90
16180;DHT22;8196;49.428;10.906;2023-04-25T09:13:09;11.80;99.90
16180;DHT22;8196;49.428;10.906;2023-04-25T09:15:57;12.20;99.90
16180;DHT22;8196;49.428;10.906;2023-04-25T09:18:26;12.70;98.70
16180;DHT22;8196;49.428;10.906;2023-04-25T09:21:04;12.90;97.20
16180;DHT22;8196;49.428;10.906;2023-04-25T09:23:45;13.30;98.80
16180;DHT22;8196;49.428;10.906;2023-04-25T09:26:17;14.30;96.30
16180;DHT22;8196;49.428;10.906;2023-04-25T09:28:44;15.40;91.90
16180;DHT22;8196;49.428;10.906;2023-04-25T09:31:12;15.90;86.60
16180;DHT22;8196;49.428;10.906;2023-04-25T09:33:47;15.90;86.30
16180;DHT22;8196;49.428;10.906;2023-04-25T09:36:14;15.60;85.10
16180;DHT22;8196;49.428;10.906;2023-04-25T09:38:43;15.20;84.80
16180;DHT22;8196;49.428;10.906;2023-04-25T09:41:11;15.20;83.20
16180;DHT22;8196;49.428;10.906;2023-04-25T09:43:39;15.20;81.00
16180;DHT22;8196;49.428;10.906;2023-04-25T09:46:09;14.80;78.90
16180;DHT22;8196;49.428;10.906;2023-04-25T09:48:36;14.20;79.60
16180;DHT22;8196;49.428;10.906;2023-04-25T09:51:03;13.90;82.40
16180;DHT22;8196;49.428;10.906;2023-04-25T09:53:30;13.80;82.70
16180;DHT22;8196;49.428;10.906;2023-04-25T09:56:00;13.60;82.80
16180;DHT22;8196;49.428;10.906;2023-04-25T09:58:29;13.40;85.00
16180;DHT22;8196;49.428;10.906;2023-04-25T10:01:01;14.20;81.80
16180;DHT22;8196;49.428;10.906;2023-04-25T10:03:31;15.50;74.40
16180;DHT22;8196;49.428;10.906;2023-04-25T10:08:31;15.00;69.10
16180;DHT22;8196;49.428;10.906;2023-04-25T10:11:02;14.80;68.60
16180;DHT22;8196;49.428;10.906;2023-04-25T10:13:30;14.20;68.80
16180;DHT22;8196;49.428;10.906;2023-04-25T10:16:00;14.00;69.90
16180;DHT22;8196;49.428;10.906;2023-04-25T10:18:28;14.70;70.80
16180;DHT22;8196;49.428;10.906;2023-04-25T10:20:56;15.00;68.40
16180;DHT22;8196;49.428;10.906;2023-04-25T10:23:24;15.60;65.40
16180;DHT22;8196;49.428;10.906;2023-04-25T10:25:52;15.80;63.50
16180;DHT22;8196;49.428;10.906;2023-04-25T10:28:21;16.40;62.10
16180;DHT22;8196;49.428;10.906;2023-04-25T10:31:06;16.60;61.40
16180;DHT22;8196;49.428;10.906;2023-04-25T10:36:09;15.60;62.50
16180;DHT22;8196;49.428;10.906;2023-04-25T10:38:36;14.90;62.60
16180;DHT22;8196;49.428;10.906;2023-04-25T10:41:06;14.40;64.10
16180;DHT22;8196;49.428;10.906;2023-04-25T10:43:42;15.20;63.90
16180;DHT22;8196;49.428;10.906;2023-04-25T10:46:19;17.30;59.90
16180;DHT22;8196;49.428;10.906;2023-04-25T10:48:55;18.20;54.40
16180;DHT22;8196;49.428;10.906;2023-04-25T10:51:24;18.10;55.50
16180;DHT22;8196;49.428;10.906;2023-04-25T10:53:59;17.40;54.70
16180;DHT22;8196;49.428;10.906;2023-04-25T10:56:31;16.40;55.20
16180;DHT22;8196;49.428;10.906;2023-04-25T11:01:39;15.20;59.50
16180;DHT22;8196;49.428;10.906;2023-04-25T11:04:19;15.10;60.60
16180;DHT22;8196;49.428;10.906;2023-04-25T11:07:02;15.70;59.70
16180;DHT22;8196;49.428;10.906;2023-04-25T11:09:34;15.70;60.10
16180;DHT22;8196;49.428;10.906;2023-04-25T11:12:01;16.50;56.80
16180;DHT22;8196;49.428;10.906;2023-04-25T11:14:28;16.40;55.50
16180;DHT22;8196;49.428;10.906;2023-04-25T11:16:57;15.70;56.00
16180;DHT22;8196;49.428;10.906;2023-04-25T11:19:27;15.10;57.00
16180;DHT22;8196;49.428;10.906;2023-04-25T11:21:55;14.60;58.50
16180;DHT22;8196;49.428;10.906;2023-04-25T11:24:27;14.00;60.10
16180;DHT22;8196;49.428;10.906;2023-04-25T11:26:54;13.90;62.70
16180;DHT22;8196;49.428;10.906;2023-04-25T11:29:23;13.90;62.40
16180;DHT22;8196;49.428;10.906;2023-04-25T11:31:50;13.80;61.60
16180;DHT22;8196;49.428;10.906;2023-04-25T11:34:19;13.60;59.70
16180;DHT22;8196;49.428;10.906;2023-04-25T11:36:46;13.50;59.40
16180;DHT22;8196;49.428;10.906;2023-04-25T11:39:12;13.50;59.70
16180;DHT22;8196;49.428;10.906;2023-04-25T11:41:41;13.40;59.30
16180;DHT22;8196;49.428;10.906;2023-04-25T11:44:11;13.50;60.50
16180;DHT22;8196;49.428;10.906;2023-04-25T11:46:38;13.90;60.60
16180;DHT22;8196;49.428;10.906;2023-04-25T11:49:05;15.00;57.20
16180;DHT22;8196;49.428;10.906;2023-04-25T11:51:39;15.90;56.50
16180;DHT22;8196;49.428;10.906;2023-04-25T11:54:06;16.90;53.30
16180;DHT22;8196;49.428;10.906;2023-04-25T11:56:33;17.10;53.60
16180;DHT22;8196;49.428;10.906;2023-04-25T11:59:02;17.40;52.40
16180;DHT22;8196;49.428;10.906;2023-04-25T12:01:33;17.30;51.20
16180;DHT22;8196;49.428;10.906;2023-04-25T12:04:21;17.00;51.50
16180;DHT22;8196;49.428;10.906;2023-04-25T12:06:52;16.60;52.60
16180;DHT22;8196;49.428;10.906;2023-04-25T12:09:27;16.30;51.10
16180;DHT22;8196;49.428;10.906;2023-04-25T12:11:55;16.40;53.00
16180;DHT22;8196;49.428;10.906;2023-04-25T12:14:26;16.40;52.90
16180;DHT22;8196;49.428;10.906;2023-04-25T12:16:56;15.90;51.90
16180;DHT22;8196;49.428;10.906;2023-04-25T12:19:25;15.20;53.50
16180;DHT22;8196;49.428;10.906;2023-04-25T12:21:52;14.80;54.20
16180;DHT22;8196;49.428;10.906;2023-04-25T12:24:26;14.40;55.50
16180;DHT22;8196;49.428;10.906;2023-04-25T12:27:02;14.20;56.60
16180;DHT22;8196;49.428;10.906;2023-04-25T12:29:31;15.00;57.30
16180;DHT22;8196;49.428;10.906;2023-04-25T12:32:14;16.70;53.60
16180;DHT22;8196;49.428;10.906;2023-04-25T12:34:41;17.90;50.80
16180;DHT22;8196;49.428;10.906;2023-04-25T12:37:09;19.30;50.70
16180;DHT22;8196;49.428;10.906;2023-04-25T12:39:35;17.70;49.90
16180;DHT22;8196;49.428;10.906;2023-04-25T12:42:02;16.90;51.40
16180;DHT22;8196;49.428;10.906;2023-04-25T12:44:33;16.10;53.10
16180;DHT22;8196;49.428;10.906;2023-04-25T12:47:00;14.50;56.10
16180;DHT22;8196;49.428;10.906;2023-04-25T12:49:27;14.40;56.60
16180;DHT22;8196;49.428;10.906;2023-04-25T12:51:54;13.80;59.00
16180;DHT22;8196;49.428;10.906;2023-04-25T12:54:21;13.60;59.10
16180;DHT22;8196;49.428;10.906;2023-04-25T12:56:47;13.50;60.40
16180;DHT22;8196;49.428;10.906;2023-04-25T12:59:14;13.40;60.60
16180;DHT22;8196;49.428;10.906;2023-04-25T13:01:42;13.80;61.10
16180;DHT22;8196;49.428;10.906;2023-04-25T13:04:09;13.60;59.50
16180;DHT22;8196;49.428;10.906;2023-04-25T13:06:36;13.60;60.10
16180;DHT22;8196;49.428;10.906;2023-04-25T13:09:03;13.90;58.90
16180;DHT22;8196;49.428;10.906;2023-04-25T13:11:30;14.10;60.00
16180;DHT22;8196;49.428;10.906;2023-04-25T13:13:57;14.00;60.10
16180;DHT22;8196;49.428;10.906;2023-04-25T13:16:24;13.90;58.40
16180;DHT22;8196;49.428;10.906;2023-04-25T13:18:50;13.70;58.50
16180;DHT22;8196;49.428;10.906;2023-04-25T13:21:17;17.30;63.10
16180;DHT22;8196;49.428;10.906;2023-04-25T13:23:44;13.70;59.60
16180;DHT22;8196;49.428;10.906;2023-04-25T13:26:12;13.80;59.80
16180;DHT22;8196;49.428;10.906;2023-04-25T13:28:39;14.10;59.60
16180;DHT22;8196;49.428;10.906;2023-04-25T13:31:10;14.00;60.00
16180;DHT22;8196;49.428;10.906;2023-04-25T13:33:36;14.20;60.00
16180;DHT22;8196;49.428;10.906;2023-04-25T13:36:03;11.70;58.20
16180;DHT22;8196;49.428;10.906;2023-04-25T13:38:30;14.80;57.90
16180;DHT22;8196;49.428;10.906;2023-04-25T13:40:57;17.00;60.20
16180;DHT22;8196;49.428;10.906;2023-04-25T13:43:24;14.20;58.50
16180;DHT22;8196;49.428;10.906;2023-04-25T13:45:50;14.50;60.00
16180;DHT22;8196;49.428;10.906;2023-04-25T13:48:18;14.30;60.10
16180;DHT22;8196;49.428;10.906;2023-04-25T13:50:46;13.90;60.90
16180;DHT22;8196;49.428;10.906;2023-04-25T13:53:13;14.00;60.10
16180;DHT22;8196;49.428;10.906;2023-04-25T13:55:40;13.70;60.80
16180;DHT22;8196;49.428;10.906;2023-04-25T13:58:07;13.30;61.00
16180;DHT22;8196;49.428;10.906;2023-04-25T14:00:37;13.30;62.30
16180;DHT22;8196;49.428;10.906;2023-04-25T14:03:06;13.20;63.50
16180;DHT22;8196;49.428;10.906;2023-04-25T14:05:35;13.10;62.50
16180;DHT22;8196;49.428;10.906;2023-04-25T14:08:07;13.00;62.00
16180;DHT22;8196;49.428;10.906;2023-04-25T14:10:35;12.80;63.20
16180;DHT22;8196;49.428;10.906;2023-04-25T14:13:02;12.60;64.30
16180;DHT22;8196;49.428;10.906;2023-04-25T14:15:31;12.60;65.00
16180;DHT22;8196;49.428;10.906;2023-04-25T14:17:59;12.40;65.00
16180;DHT22;8196;49.428;10.906;2023-04-25T14:20:27;12.30;65.50
16180;DHT22;8196;49.428;10.906;2023-04-25T14:22:53;12.30;65.60
16180;DHT22;8196;49.428;10.906;2023-04-25T14:25:22;12.10;66.80
16180;DHT22;8196;49.428;10.906;2023-04-25T14:27:49;11.90;67.40
16180;DHT22;8196;49.428;10.906;2023-04-25T14:30:18;11.90;68.30
16180;DHT22;8196;49.428;10.906;2023-04-25T14:32:44;11.80;69.30
16180;DHT22;8196;49.428;10.906;2023-04-25T14:35:12;11.60;69.70
16180;DHT22;8196;49.428;10.906;2023-04-25T14:37:39;11.60;69.60
16180;DHT22;8196;49.428;10.906;2023-04-25T14:40:07;11.50;70.70
16180;DHT22;8196;49.428;10.906;2023-04-25T14:42:37;11.50;70.70
16180;DHT22;8196;49.428;10.906;2023-04-25T14:45:06;11.60;69.00
16180;DHT22;8196;49.428;10.906;2023-04-25T14:47:35;11.70;67.80
16180;DHT22;8196;49.428;10.906;2023-04-25T14:50:02;11.70;68.40
16180;DHT22;8196;49.428;10.906;2023-04-25T14:52:29;11.90;69.00
16180;DHT22;8196;49.428;10.906;2023-04-25T14:54:56;12.10;67.20
16180;DHT22;8196;49.428;10.906;2023-04-25T14:57:22;12.40;65.90
16180;DHT22;8196;49.428;10.906;2023-04-25T14:59:49;12.40;66.40
16180;DHT22;8196;49.428;10.906;2023-04-25T15:02:16;12.70;66.70
16180;DHT22;8196;49.428;10.906;2023-04-25T15:04:43;12.90;64.80
16180;DHT22;8196;49.428;10.906;2023-04-25T15:07:10;13.20;61.60
16180;DHT22;8196;49.428;10.906;2023-04-25T15:09:36;13.10;62.10
16180;DHT22;8196;49.428;10.906;2023-04-25T15:12:03;13.20;63.20
16180;DHT22;8196;49.428;10.906;2023-04-25T15:14:30;13.50;62.90
16180;DHT22;8196;49.428;10.906;2023-04-25T15:16:57;13.80;61.50
16180;DHT22;8196;49.428;10.906;2023-04-25T15:19:24;13.80;60.90
16180;DHT22;8196;49.428;10.906;2023-04-25T15:21:51;13.80;61.00
16180;DHT22;8196;49.428;10.906;2023-04-25T15:24:18;13.70;62.90
16180;DHT22;8196;49.428;10.906;2023-04-25T15:26:44;13.60;63.50
16180;DHT22;8196;49.428;10.906;2023-04-25T15:29:12;13.50;65.70
16180;DHT22;8196;49.428;10.906;2023-04-25T15:31:39;13.50;67.80
16180;DHT22;8196;49.428;10.906;2023-04-25T15:34:06;13.40;69.30
16180;DHT22;8196;49.428;10.906;2023-04-25T15:36:32;13.40;69.60
16180;DHT22;8196;49.428;10.906;2023-04-25T15:38:59;13.40;67.80
16180;DHT22;8196;49.428;10.906;2023-04-25T15:41:26;13.50;69.90
16180;DHT22;8196;49.428;10.906;2023-04-25T15:43:52;13.70;67.20
16180;DHT22;8196;49.428;10.906;2023-04-25T15:46:20;13.80;68.40
16180;DHT22;8196;49.428;10.906;2023-04-25T15:48:49;14.50;62.20
16180;DHT22;8196;49.428;10.906;2023-04-25T15:51:15;14.90;60.30
16180;DHT22;8196;49.428;10.906;2023-04-25T15:53:42;14.80;59.40